This is the latest recevied weather packets stored in our database for station/object SQ4IXR-4. If no packets are shown the sender has not sent any weather packets the latest 1 day(s).
| Time | Temp. | Humidity | Pressure | Rain* | Wind** | Luminosity | Snow |
|---|---|---|---|---|---|---|---|
| 1778089898 | 21.11° C | 48% | 1008.6 hPa | - | - | - | - |
| 1778089076 | 22.22° C | 45% | 1008.4 hPa | - | - | - | - |
| 1778086607 | 23.33° C | 41% | 1008 hPa | - | - | - | - |
| 1778083315 | 25.56° C | 34% | 1007.5 hPa | - | - | - | - |
| 1778081672 | 27.78° C | 30% | 1007.2 hPa | - | - | - | - |
| 1778080845 | 26.67° C | 31% | 1007.3 hPa | - | - | - | - |
| 1778079201 | 27.78° C | 29% | 1007 hPa | - | - | - | - |
| 1778073431 | 27.78° C | 24% | 1006.7 hPa | - | - | - | - |
| 1778071785 | 29.44° C | 22% | 1006.9 hPa | - | - | - | - |
| 1778070958 | 28.33° C | 23% | 1006.9 hPa | - | - | - | - |
| 1778070140 | 30° C | 20% | 1006.8 hPa | - | - | - | - |
| 1778066015 | 30° C | 24% | 1007.7 hPa | - | - | - | - |
| 1778064358 | 28.89° C | 27% | 1008.2 hPa | - | - | - | - |
| 1778061896 | 33.89° C | 25% | 1008.3 hPa | - | - | - | - |
| 1778059430 | 30° C | 30% | 1008.8 hPa | - | - | - | - |
| 1778058607 | 32.78° C | 26% | 1008.8 hPa | - | - | - | - |
| 1778057798 | 45° C | 14% | 1008.2 hPa | - | - | - | - |
| 1778056980 | 46.11° C | 14% | 1008.4 hPa | - | - | - | - |
| 1778056152 | 44.44° C | 15% | 1008.3 hPa | - | - | - | - |
| 1778055321 | 41.11° C | 18% | 1008.7 hPa | - | - | - | - |
| 1778053662 | 39.44° C | 20% | 1008.9 hPa | - | - | - | - |
| 1778052809 | 28.89° C | 35% | 1009.4 hPa | - | - | - | - |
| 1778049502 | 22.78° C | 53% | 1010.1 hPa | - | - | - | - |
| 1778048676 | 18.33° C | 69% | 1010.6 hPa | - | - | - | - |
| 1778046201 | 15.56° C | 84% | 1011 hPa | - | - | - | - |
* Rain since midnight (hover to see other rain measurements)
** Current wind speed in m/s (hover to see current wind gust speed)